sensor_id;sensor_type;location;lat;lon;timestamp;P1;durP1;ratioP1;P2;durP2;ratioP2
13733;SDS011;43298;52.560;13.508;2023-02-15T00:00:26;17.10;;;16.00;;
13733;SDS011;43298;52.560;13.508;2023-02-15T00:02:51;16.48;;;15.48;;
13733;SDS011;43298;52.560;13.508;2023-02-15T00:05:17;17.98;;;16.98;;
13733;SDS011;43298;52.560;13.508;2023-02-15T00:07:43;19.13;;;17.75;;
13733;SDS011;43298;52.560;13.508;2023-02-15T00:10:09;15.70;;;14.57;;
13733;SDS011;43298;52.560;13.508;2023-02-15T00:12:36;18.08;;;16.98;;
13733;SDS011;43298;52.560;13.508;2023-02-15T00:15:02;17.13;;;16.27;;
13733;SDS011;43298;52.560;13.508;2023-02-15T00:17:29;17.58;;;16.15;;
13733;SDS011;43298;52.560;13.508;2023-02-15T00:19:54;18.35;;;17.30;;
13733;SDS011;43298;52.560;13.508;2023-02-15T00:22:20;20.33;;;19.25;;
13733;SDS011;43298;52.560;13.508;2023-02-15T00:24:46;23.10;;;17.85;;
13733;SDS011;43298;52.560;13.508;2023-02-15T00:27:12;16.95;;;15.88;;
13733;SDS011;43298;52.560;13.508;2023-02-15T00:29:38;17.33;;;16.35;;
13733;SDS011;43298;52.560;13.508;2023-02-15T00:32:03;17.83;;;16.63;;
13733;SDS011;43298;52.560;13.508;2023-02-15T00:34:29;16.92;;;15.98;;
13733;SDS011;43298;52.560;13.508;2023-02-15T00:36:55;17.02;;;15.75;;
13733;SDS011;43298;52.560;13.508;2023-02-15T00:39:21;16.30;;;15.45;;
13733;SDS011;43298;52.560;13.508;2023-02-15T00:41:48;16.48;;;15.60;;
13733;SDS011;43298;52.560;13.508;2023-02-15T00:44:15;19.00;;;18.10;;
13733;SDS011;43298;52.560;13.508;2023-02-15T00:46:41;18.30;;;17.40;;
13733;SDS011;43298;52.560;13.508;2023-02-15T00:49:07;20.13;;;18.65;;
13733;SDS011;43298;52.560;13.508;2023-02-15T00:51:33;18.67;;;17.83;;
13733;SDS011;43298;52.560;13.508;2023-02-15T00:53:59;22.38;;;21.20;;
13733;SDS011;43298;52.560;13.508;2023-02-15T00:56:25;21.35;;;20.40;;
13733;SDS011;43298;52.560;13.508;2023-02-15T00:58:53;19.67;;;18.77;;
13733;SDS011;43298;52.560;13.508;2023-02-15T01:01:19;19.08;;;18.20;;
13733;SDS011;43298;52.560;13.508;2023-02-15T01:03:46;16.65;;;15.93;;
13733;SDS011;43298;52.560;13.508;2023-02-15T01:06:13;18.00;;;16.90;;
13733;SDS011;43298;52.560;13.508;2023-02-15T01:08:41;16.08;;;15.38;;
13733;SDS011;43298;52.560;13.508;2023-02-15T01:11:12;14.45;;;13.77;;
13733;SDS011;43298;52.560;13.508;2023-02-15T01:13:47;14.93;;;14.23;;
13733;SDS011;43298;52.560;13.508;2023-02-15T01:16:14;16.92;;;16.10;;
13733;SDS011;43298;52.560;13.508;2023-02-15T01:18:41;14.40;;;13.65;;
13733;SDS011;43298;52.560;13.508;2023-02-15T01:21:11;14.70;;;14.05;;
13733;SDS011;43298;52.560;13.508;2023-02-15T01:23:43;16.58;;;15.55;;
13733;SDS011;43298;52.560;13.508;2023-02-15T01:26:09;15.38;;;14.45;;
13733;SDS011;43298;52.560;13.508;2023-02-15T01:28:35;17.45;;;16.40;;
13733;SDS011;43298;52.560;13.508;2023-02-15T01:31:06;15.13;;;14.45;;
13733;SDS011;43298;52.560;13.508;2023-02-15T01:33:35;17.75;;;16.80;;
13733;SDS011;43298;52.560;13.508;2023-02-15T01:36:01;15.80;;;14.93;;
13733;SDS011;43298;52.560;13.508;2023-02-15T01:38:28;17.30;;;16.38;;
13733;SDS011;43298;52.560;13.508;2023-02-15T01:40:54;22.80;;;18.90;;
13733;SDS011;43298;52.560;13.508;2023-02-15T01:43:44;20.70;;;19.50;;
13733;SDS011;43298;52.560;13.508;2023-02-15T01:46:50;20.70;;;19.77;;
13733;SDS011;43298;52.560;13.508;2023-02-15T01:49:18;23.52;;;22.08;;
13733;SDS011;43298;52.560;13.508;2023-02-15T01:51:49;20.80;;;19.70;;
13733;SDS011;43298;52.560;13.508;2023-02-15T01:57:03;22.52;;;21.42;;
13733;SDS011;43298;52.560;13.508;2023-02-15T01:59:34;20.23;;;19.02;;
13733;SDS011;43298;52.560;13.508;2023-02-15T02:02:01;21.88;;;20.85;;
13733;SDS011;43298;52.560;13.508;2023-02-15T02:04:46;19.80;;;19.00;;
13733;SDS011;43298;52.560;13.508;2023-02-15T02:07:15;17.48;;;16.67;;
13733;SDS011;43298;52.560;13.508;2023-02-15T02:09:44;18.30;;;17.50;;
13733;SDS011;43298;52.560;13.508;2023-02-15T02:12:10;17.83;;;17.02;;
13733;SDS011;43298;52.560;13.508;2023-02-15T02:14:37;17.23;;;16.42;;
13733;SDS011;43298;52.560;13.508;2023-02-15T02:34:43;15.45;;;14.77;;
13733;SDS011;43298;52.560;13.508;2023-02-15T02:37:48;15.85;;;15.15;;
13733;SDS011;43298;52.560;13.508;2023-02-15T02:41:44;17.05;;;16.23;;
13733;SDS011;43298;52.560;13.508;2023-02-15T02:46:36;15.45;;;14.75;;
13733;SDS011;43298;52.560;13.508;2023-02-15T02:49:30;15.18;;;14.52;;
13733;SDS011;43298;52.560;13.508;2023-02-15T02:52:05;17.92;;;16.95;;
13733;SDS011;43298;52.560;13.508;2023-02-15T02:55:03;18.63;;;17.83;;
13733;SDS011;43298;52.560;13.508;2023-02-15T03:01:26;18.13;;;17.27;;
13733;SDS011;43298;52.560;13.508;2023-02-15T03:06:19;20.50;;;19.58;;
13733;SDS011;43298;52.560;13.508;2023-02-15T03:09:18;18.85;;;17.95;;
13733;SDS011;43298;52.560;13.508;2023-02-15T03:12:10;18.13;;;17.25;;
13733;SDS011;43298;52.560;13.508;2023-02-15T03:14:41;17.92;;;17.15;;
13733;SDS011;43298;52.560;13.508;2023-02-15T03:17:13;17.85;;;16.98;;
13733;SDS011;43298;52.560;13.508;2023-02-15T03:19:41;18.90;;;18.10;;
13733;SDS011;43298;52.560;13.508;2023-02-15T03:22:28;18.10;;;17.25;;
13733;SDS011;43298;52.560;13.508;2023-02-15T03:25:26;15.55;;;14.88;;
13733;SDS011;43298;52.560;13.508;2023-02-15T03:27:59;17.10;;;16.20;;
13733;SDS011;43298;52.560;13.508;2023-02-15T03:30:31;16.38;;;15.65;;
13733;SDS011;43298;52.560;13.508;2023-02-15T03:32:59;16.48;;;15.73;;
13733;SDS011;43298;52.560;13.508;2023-02-15T03:35:31;16.83;;;15.55;;
13733;SDS011;43298;52.560;13.508;2023-02-15T03:38:09;14.90;;;14.27;;
13733;SDS011;43298;52.560;13.508;2023-02-15T03:40:43;18.27;;;17.05;;
13733;SDS011;43298;52.560;13.508;2023-02-15T03:43:33;17.38;;;16.40;;
13733;SDS011;43298;52.560;13.508;2023-02-15T03:46:31;15.57;;;14.88;;
13733;SDS011;43298;52.560;13.508;2023-02-15T03:49:05;14.65;;;14.02;;
13733;SDS011;43298;52.560;13.508;2023-02-15T03:51:38;15.15;;;14.50;;
13733;SDS011;43298;52.560;13.508;2023-02-15T03:54:12;16.83;;;16.02;;
13733;SDS011;43298;52.560;13.508;2023-02-15T03:57:01;16.00;;;15.30;;
13733;SDS011;43298;52.560;13.508;2023-02-15T03:59:46;13.93;;;13.25;;
13733;SDS011;43298;52.560;13.508;2023-02-15T04:02:34;15.63;;;14.90;;
13733;SDS011;43298;52.560;13.508;2023-02-15T04:05:11;15.68;;;14.88;;
13733;SDS011;43298;52.560;13.508;2023-02-15T04:07:37;13.73;;;13.13;;
13733;SDS011;43298;52.560;13.508;2023-02-15T04:10:03;14.38;;;13.77;;
13733;SDS011;43298;52.560;13.508;2023-02-15T04:12:48;15.73;;;14.82;;
13733;SDS011;43298;52.560;13.508;2023-02-15T04:15:14;16.15;;;15.35;;
13733;SDS011;43298;52.560;13.508;2023-02-15T04:17:59;14.63;;;13.63;;
13733;SDS011;43298;52.560;13.508;2023-02-15T04:20:28;15.32;;;14.55;;
13733;SDS011;43298;52.560;13.508;2023-02-15T04:23:13;14.48;;;13.75;;
13733;SDS011;43298;52.560;13.508;2023-02-15T04:25:57;14.82;;;14.23;;
13733;SDS011;43298;52.560;13.508;2023-02-15T04:28:22;14.20;;;13.60;;
13733;SDS011;43298;52.560;13.508;2023-02-15T04:30:48;15.77;;;14.82;;
13733;SDS011;43298;52.560;13.508;2023-02-15T04:33:14;15.23;;;14.02;;
13733;SDS011;43298;52.560;13.508;2023-02-15T04:35:40;16.75;;;15.65;;
13733;SDS011;43298;52.560;13.508;2023-02-15T04:38:09;13.82;;;13.23;;
13733;SDS011;43298;52.560;13.508;2023-02-15T04:40:35;18.75;;;17.40;;
13733;SDS011;43298;52.560;13.508;2023-02-15T04:43:01;15.57;;;14.88;;
13733;SDS011;43298;52.560;13.508;2023-02-15T04:45:27;16.25;;;15.20;;
13733;SDS011;43298;52.560;13.508;2023-02-15T04:47:53;16.92;;;16.02;;
13733;SDS011;43298;52.560;13.508;2023-02-15T04:50:19;16.52;;;15.23;;
13733;SDS011;43298;52.560;13.508;2023-02-15T04:52:45;15.73;;;14.60;;
13733;SDS011;43298;52.560;13.508;2023-02-15T04:55:11;13.27;;;12.68;;
13733;SDS011;43298;52.560;13.508;2023-02-15T04:57:37;16.58;;;15.43;;
13733;SDS011;43298;52.560;13.508;2023-02-15T05:00:03;14.52;;;13.77;;
13733;SDS011;43298;52.560;13.508;2023-02-15T05:02:30;17.85;;;16.65;;
13733;SDS011;43298;52.560;13.508;2023-02-15T05:04:56;14.63;;;13.93;;
13733;SDS011;43298;52.560;13.508;2023-02-15T05:07:22;14.75;;;14.15;;
13733;SDS011;43298;52.560;13.508;2023-02-15T05:09:48;14.45;;;13.75;;
13733;SDS011;43298;52.560;13.508;2023-02-15T05:12:13;12.60;;;12.10;;
13733;SDS011;43298;52.560;13.508;2023-02-15T05:14:39;15.65;;;14.75;;
13733;SDS011;43298;52.560;13.508;2023-02-15T05:17:05;14.18;;;13.52;;
13733;SDS011;43298;52.560;13.508;2023-02-15T05:19:31;15.13;;;14.25;;
13733;SDS011;43298;52.560;13.508;2023-02-15T05:21:57;16.23;;;15.35;;
13733;SDS011;43298;52.560;13.508;2023-02-15T05:24:22;16.25;;;15.45;;
13733;SDS011;43298;52.560;13.508;2023-02-15T05:27:07;13.75;;;13.15;;
13733;SDS011;43298;52.560;13.508;2023-02-15T05:29:55;14.45;;;13.85;;
13733;SDS011;43298;52.560;13.508;2023-02-15T05:32:20;14.45;;;13.52;;
13733;SDS011;43298;52.560;13.508;2023-02-15T05:34:46;16.52;;;15.70;;
13733;SDS011;43298;52.560;13.508;2023-02-15T05:37:12;16.20;;;15.20;;
13733;SDS011;43298;52.560;13.508;2023-02-15T05:39:38;15.40;;;14.75;;
13733;SDS011;43298;52.560;13.508;2023-02-15T05:42:04;16.98;;;16.27;;
13733;SDS011;43298;52.560;13.508;2023-02-15T05:44:29;16.20;;;15.30;;
13733;SDS011;43298;52.560;13.508;2023-02-15T05:46:55;16.63;;;15.75;;
13733;SDS011;43298;52.560;13.508;2023-02-15T05:49:21;16.67;;;15.77;;
13733;SDS011;43298;52.560;13.508;2023-02-15T05:51:47;15.60;;;14.90;;
13733;SDS011;43298;52.560;13.508;2023-02-15T05:54:14;17.10;;;16.20;;
13733;SDS011;43298;52.560;13.508;2023-02-15T05:56:39;15.43;;;14.77;;
13733;SDS011;43298;52.560;13.508;2023-02-15T05:59:05;14.90;;;14.25;;
13733;SDS011;43298;52.560;13.508;2023-02-15T06:01:31;16.90;;;16.13;;
13733;SDS011;43298;52.560;13.508;2023-02-15T06:03:57;19.73;;;18.23;;
13733;SDS011;43298;52.560;13.508;2023-02-15T06:06:22;20.38;;;19.27;;
13733;SDS011;43298;52.560;13.508;2023-02-15T06:08:48;21.10;;;19.67;;
13733;SDS011;43298;52.560;13.508;2023-02-15T06:11:14;20.92;;;19.67;;
13733;SDS011;43298;52.560;13.508;2023-02-15T06:13:40;19.35;;;18.17;;
13733;SDS011;43298;52.560;13.508;2023-02-15T06:16:06;18.90;;;18.00;;
13733;SDS011;43298;52.560;13.508;2023-02-15T06:18:32;17.83;;;16.63;;
13733;SDS011;43298;52.560;13.508;2023-02-15T06:20:58;16.50;;;15.63;;
13733;SDS011;43298;52.560;13.508;2023-02-15T06:23:24;15.18;;;14.40;;
13733;SDS011;43298;52.560;13.508;2023-02-15T06:25:50;16.77;;;15.90;;
13733;SDS011;43298;52.560;13.508;2023-02-15T06:28:15;19.38;;;17.95;;
13733;SDS011;43298;52.560;13.508;2023-02-15T06:30:41;16.35;;;15.35;;
13733;SDS011;43298;52.560;13.508;2023-02-15T06:33:07;18.00;;;17.10;;
13733;SDS011;43298;52.560;13.508;2023-02-15T06:35:33;20.55;;;16.10;;
13733;SDS011;43298;52.560;13.508;2023-02-15T06:37:58;22.33;;;20.45;;
13733;SDS011;43298;52.560;13.508;2023-02-15T06:40:24;19.00;;;17.58;;
13733;SDS011;43298;52.560;13.508;2023-02-15T06:42:50;18.48;;;16.83;;
13733;SDS011;43298;52.560;13.508;2023-02-15T06:45:16;16.85;;;15.75;;
13733;SDS011;43298;52.560;13.508;2023-02-15T06:47:42;15.43;;;14.60;;
13733;SDS011;43298;52.560;13.508;2023-02-15T06:50:08;15.50;;;14.55;;
13733;SDS011;43298;52.560;13.508;2023-02-15T06:52:34;16.27;;;15.32;;
13733;SDS011;43298;52.560;13.508;2023-02-15T06:55:00;14.25;;;13.27;;
13733;SDS011;43298;52.560;13.508;2023-02-15T06:57:26;16.10;;;15.10;;
13733;SDS011;43298;52.560;13.508;2023-02-15T06:59:52;14.55;;;13.75;;
13733;SDS011;43298;52.560;13.508;2023-02-15T07:02:17;16.13;;;14.80;;
13733;SDS011;43298;52.560;13.508;2023-02-15T07:04:43;16.42;;;15.52;;
13733;SDS011;43298;52.560;13.508;2023-02-15T07:07:10;17.58;;;14.85;;
13733;SDS011;43298;52.560;13.508;2023-02-15T07:09:37;17.27;;;15.75;;
13733;SDS011;43298;52.560;13.508;2023-02-15T07:12:03;13.90;;;13.30;;
13733;SDS011;43298;52.560;13.508;2023-02-15T07:14:48;15.32;;;14.40;;
13733;SDS011;43298;52.560;13.508;2023-02-15T07:17:14;15.70;;;14.15;;
13733;SDS011;43298;52.560;13.508;2023-02-15T07:19:40;14.90;;;14.20;;
13733;SDS011;43298;52.560;13.508;2023-02-15T07:22:06;34.00;;;16.85;;
13733;SDS011;43298;52.560;13.508;2023-02-15T07:24:31;18.38;;;16.50;;
13733;SDS011;43298;52.560;13.508;2023-02-15T07:26:57;15.43;;;14.23;;
13733;SDS011;43298;52.560;13.508;2023-02-15T07:29:23;23.42;;;17.25;;
13733;SDS011;43298;52.560;13.508;2023-02-15T07:31:49;14.90;;;14.20;;
13733;SDS011;43298;52.560;13.508;2023-02-15T07:34:15;13.90;;;13.10;;
13733;SDS011;43298;52.560;13.508;2023-02-15T07:36:41;16.55;;;15.57;;
13733;SDS011;43298;52.560;13.508;2023-02-15T07:39:11;12.93;;;12.15;;
13733;SDS011;43298;52.560;13.508;2023-02-15T07:41:36;14.10;;;13.35;;
13733;SDS011;43298;52.560;13.508;2023-02-15T07:44:02;14.90;;;14.05;;
13733;SDS011;43298;52.560;13.508;2023-02-15T07:46:28;13.30;;;12.60;;
13733;SDS011;43298;52.560;13.508;2023-02-15T07:48:55;15.43;;;14.27;;
13733;SDS011;43298;52.560;13.508;2023-02-15T07:51:21;14.43;;;13.60;;
13733;SDS011;43298;52.560;13.508;2023-02-15T07:53:46;15.68;;;14.93;;
13733;SDS011;43298;52.560;13.508;2023-02-15T07:56:13;15.60;;;14.35;;
13733;SDS011;43298;52.560;13.508;2023-02-15T07:58:39;14.68;;;14.02;;
13733;SDS011;43298;52.560;13.508;2023-02-15T08:01:27;13.90;;;13.30;;
13733;SDS011;43298;52.560;13.508;2023-02-15T08:03:58;13.90;;;13.25;;
13733;SDS011;43298;52.560;13.508;2023-02-15T08:06:25;15.15;;;14.20;;
13733;SDS011;43298;52.560;13.508;2023-02-15T08:08:54;14.35;;;13.35;;
13733;SDS011;43298;52.560;13.508;2023-02-15T08:11:27;14.57;;;13.88;;
13733;SDS011;43298;52.560;13.508;2023-02-15T08:16:33;13.40;;;12.70;;
13733;SDS011;43298;52.560;13.508;2023-02-15T08:24:22;15.95;;;15.15;;
13733;SDS011;43298;52.560;13.508;2023-02-15T08:26:56;17.48;;;16.15;;
13733;SDS011;43298;52.560;13.508;2023-02-15T08:29:25;14.30;;;13.50;;
13733;SDS011;43298;52.560;13.508;2023-02-15T08:31:54;17.30;;;15.10;;
13733;SDS011;43298;52.560;13.508;2023-02-15T08:34:27;14.50;;;13.80;;
13733;SDS011;43298;52.560;13.508;2023-02-15T08:36:55;16.02;;;15.02;;
13733;SDS011;43298;52.560;13.508;2023-02-15T08:39:21;15.00;;;14.20;;
13733;SDS011;43298;52.560;13.508;2023-02-15T08:41:48;18.48;;;16.77;;
13733;SDS011;43298;52.560;13.508;2023-02-15T08:44:15;15.18;;;14.18;;
13733;SDS011;43298;52.560;13.508;2023-02-15T08:46:43;15.65;;;14.15;;
13733;SDS011;43298;52.560;13.508;2023-02-15T08:49:12;16.55;;;15.65;;
13733;SDS011;43298;52.560;13.508;2023-02-15T08:51:41;19.00;;;17.25;;
13733;SDS011;43298;52.560;13.508;2023-02-15T08:54:08;17.00;;;16.10;;
13733;SDS011;43298;52.560;13.508;2023-02-15T08:56:40;16.58;;;15.57;;
13733;SDS011;43298;52.560;13.508;2023-02-15T08:59:11;17.80;;;16.80;;
13733;SDS011;43298;52.560;13.508;2023-02-15T09:01:43;18.27;;;17.25;;
13733;SDS011;43298;52.560;13.508;2023-02-15T09:04:10;20.73;;;19.60;;
13733;SDS011;43298;52.560;13.508;2023-02-15T09:06:38;20.35;;;18.73;;
13733;SDS011;43298;52.560;13.508;2023-02-15T09:09:06;24.85;;;22.52;;
13733;SDS011;43298;52.560;13.508;2023-02-15T09:11:34;21.13;;;19.58;;
13733;SDS011;43298;52.560;13.508;2023-02-15T09:14:07;27.23;;;25.08;;
13733;SDS011;43298;52.560;13.508;2023-02-15T09:16:45;21.08;;;19.48;;
13733;SDS011;43298;52.560;13.508;2023-02-15T09:19:18;18.77;;;17.58;;
13733;SDS011;43298;52.560;13.508;2023-02-15T09:21:46;17.67;;;16.23;;
13733;SDS011;43298;52.560;13.508;2023-02-15T09:24:12;24.50;;;20.10;;
13733;SDS011;43298;52.560;13.508;2023-02-15T09:26:42;19.80;;;18.33;;
13733;SDS011;43298;52.560;13.508;2023-02-15T09:29:10;16.33;;;15.25;;
13733;SDS011;43298;52.560;13.508;2023-02-15T09:31:39;17.38;;;15.95;;
13733;SDS011;43298;52.560;13.508;2023-02-15T09:34:09;16.35;;;15.38;;
13733;SDS011;43298;52.560;13.508;2023-02-15T09:36:37;17.80;;;16.58;;
13733;SDS011;43298;52.560;13.508;2023-02-15T09:47:46;21.52;;;18.75;;
13733;SDS011;43298;52.560;13.508;2023-02-15T09:56:42;18.42;;;16.80;;
13733;SDS011;43298;52.560;13.508;2023-02-15T09:59:34;20.48;;;18.75;;
13733;SDS011;43298;52.560;13.508;2023-02-15T10:05:47;17.75;;;16.02;;
13733;SDS011;43298;52.560;13.508;2023-02-15T10:12:47;17.27;;;15.98;;
13733;SDS011;43298;52.560;13.508;2023-02-15T10:27:48;16.45;;;15.25;;
13733;SDS011;43298;52.560;13.508;2023-02-15T10:30:19;18.20;;;16.83;;
13733;SDS011;43298;52.560;13.508;2023-02-15T10:33:08;17.95;;;16.58;;
13733;SDS011;43298;52.560;13.508;2023-02-15T10:39:53;19.50;;;17.98;;
13733;SDS011;43298;52.560;13.508;2023-02-15T10:51:16;17.40;;;16.08;;
13733;SDS011;43298;52.560;13.508;2023-02-15T10:54:14;18.23;;;16.73;;
13733;SDS011;43298;52.560;13.508;2023-02-15T10:57:02;33.80;;;15.73;;
13733;SDS011;43298;52.560;13.508;2023-02-15T11:02:46;15.15;;;14.07;;
13733;SDS011;43298;52.560;13.508;2023-02-15T11:06:11;20.00;;;18.45;;
13733;SDS011;43298;52.560;13.508;2023-02-15T11:08:53;17.02;;;15.88;;
13733;SDS011;43298;52.560;13.508;2023-02-15T11:11:29;18.25;;;17.15;;
13733;SDS011;43298;52.560;13.508;2023-02-15T11:14:05;18.35;;;16.98;;
13733;SDS011;43298;52.560;13.508;2023-02-15T11:16:52;18.55;;;17.25;;
13733;SDS011;43298;52.560;13.508;2023-02-15T11:19:35;18.23;;;16.92;;
13733;SDS011;43298;52.560;13.508;2023-02-15T11:22:15;17.52;;;16.13;;
13733;SDS011;43298;52.560;13.508;2023-02-15T11:24:42;17.75;;;16.02;;
13733;SDS011;43298;52.560;13.508;2023-02-15T11:27:17;22.35;;;15.88;;
13733;SDS011;43298;52.560;13.508;2023-02-15T11:29:52;20.65;;;17.30;;
13733;SDS011;43298;52.560;13.508;2023-02-15T11:34:59;16.70;;;15.57;;
13733;SDS011;43298;52.560;13.508;2023-02-15T11:40:47;16.92;;;15.75;;
13733;SDS011;43298;52.560;13.508;2023-02-15T11:43:38;16.30;;;15.20;;
13733;SDS011;43298;52.560;13.508;2023-02-15T11:46:05;18.10;;;16.25;;
13733;SDS011;43298;52.560;13.508;2023-02-15T11:48:32;16.27;;;14.82;;
13733;SDS011;43298;52.560;13.508;2023-02-15T11:50:59;16.90;;;15.60;;
13733;SDS011;43298;52.560;13.508;2023-02-15T11:53:27;18.45;;;16.83;;
13733;SDS011;43298;52.560;13.508;2023-02-15T11:56:01;17.00;;;15.88;;
13733;SDS011;43298;52.560;13.508;2023-02-15T12:01:25;19.33;;;15.80;;
13733;SDS011;43298;52.560;13.508;2023-02-15T12:04:17;15.38;;;14.18;;
13733;SDS011;43298;52.560;13.508;2023-02-15T12:06:55;15.00;;;13.90;;
13733;SDS011;43298;52.560;13.508;2023-02-15T12:12:39;12.85;;;12.15;;
13733;SDS011;43298;52.560;13.508;2023-02-15T12:22:39;14.45;;;13.55;;
13733;SDS011;43298;52.560;13.508;2023-02-15T12:28:33;12.40;;;11.60;;
13733;SDS011;43298;52.560;13.508;2023-02-15T12:31:03;13.32;;;12.40;;
13733;SDS011;43298;52.560;13.508;2023-02-15T12:33:50;13.48;;;12.60;;
13733;SDS011;43298;52.560;13.508;2023-02-15T12:36:24;15.82;;;14.60;;
13733;SDS011;43298;52.560;13.508;2023-02-15T12:39:04;16.88;;;15.50;;
13733;SDS011;43298;52.560;13.508;2023-02-15T12:44:21;13.85;;;12.75;;
13733;SDS011;43298;52.560;13.508;2023-02-15T12:49:32;13.70;;;12.80;;
13733;SDS011;43298;52.560;13.508;2023-02-15T12:52:04;13.93;;;12.98;;
13733;SDS011;43298;52.560;13.508;2023-02-15T12:54:42;13.73;;;12.60;;
13733;SDS011;43298;52.560;13.508;2023-02-15T12:57:51;15.98;;;14.85;;
13733;SDS011;43298;52.560;13.508;2023-02-15T13:00:00;13.98;;;12.93;;
13733;SDS011;43298;52.560;13.508;2023-02-15T13:02:53;14.32;;;13.50;;
13733;SDS011;43298;52.560;13.508;2023-02-15T13:05:23;12.85;;;11.05;;
13733;SDS011;43298;52.560;13.508;2023-02-15T13:08:14;11.93;;;11.23;;
13733;SDS011;43298;52.560;13.508;2023-02-15T13:10:54;13.10;;;12.15;;
13733;SDS011;43298;52.560;13.508;2023-02-15T13:13:35;13.80;;;12.82;;
13733;SDS011;43298;52.560;13.508;2023-02-15T13:16:30;14.68;;;13.82;;
13733;SDS011;43298;52.560;13.508;2023-02-15T13:18:57;15.02;;;14.13;;
13733;SDS011;43298;52.560;13.508;2023-02-15T13:21:29;13.80;;;12.43;;
13733;SDS011;43298;52.560;13.508;2023-02-15T13:24:14;14.45;;;13.55;;
13733;SDS011;43298;52.560;13.508;2023-02-15T13:26:58;13.15;;;12.20;;
13733;SDS011;43298;52.560;13.508;2023-02-15T13:29:29;14.45;;;13.05;;
13733;SDS011;43298;52.560;13.508;2023-02-15T13:32:23;13.88;;;13.07;;
13733;SDS011;43298;52.560;13.508;2023-02-15T13:35:00;15.07;;;14.27;;
13733;SDS011;43298;52.560;13.508;2023-02-15T13:40:12;16.30;;;15.40;;
13733;SDS011;43298;52.560;13.508;2023-02-15T13:43:11;12.27;;;11.48;;
13733;SDS011;43298;52.560;13.508;2023-02-15T14:12:24;15.73;;;14.82;;
13733;SDS011;43298;52.560;13.508;2023-02-15T14:32:09;13.30;;;12.60;;
13733;SDS011;43298;52.560;13.508;2023-02-15T14:34:51;13.40;;;12.45;;
13733;SDS011;43298;52.560;13.508;2023-02-15T14:38:07;14.48;;;13.68;;
13733;SDS011;43298;52.560;13.508;2023-02-15T14:47:15;14.70;;;13.55;;
13733;SDS011;43298;52.560;13.508;2023-02-15T14:49:57;12.82;;;12.02;;
13733;SDS011;43298;52.560;13.508;2023-02-15T14:52:23;14.85;;;13.85;;
13733;SDS011;43298;52.560;13.508;2023-02-15T15:02:13;14.15;;;12.77;;
13733;SDS011;43298;52.560;13.508;2023-02-15T15:08:00;17.48;;;16.23;;
13733;SDS011;43298;52.560;13.508;2023-02-15T15:10:41;13.98;;;12.93;;
13733;SDS011;43298;52.560;13.508;2023-02-15T15:13:34;14.63;;;13.60;;
13733;SDS011;43298;52.560;13.508;2023-02-15T15:15:56;15.75;;;14.85;;
13733;SDS011;43298;52.560;13.508;2023-02-15T15:18:55;13.85;;;12.88;;
13733;SDS011;43298;52.560;13.508;2023-02-15T15:27:48;13.57;;;12.77;;
13733;SDS011;43298;52.560;13.508;2023-02-15T15:32:47;13.77;;;12.90;;
13733;SDS011;43298;52.560;13.508;2023-02-15T15:50:28;15.82;;;14.57;;
13733;SDS011;43298;52.560;13.508;2023-02-15T15:52:57;14.68;;;13.88;;
13733;SDS011;43298;52.560;13.508;2023-02-15T15:55:27;18.15;;;16.85;;
13733;SDS011;43298;52.560;13.508;2023-02-15T15:57:58;18.08;;;16.50;;
13733;SDS011;43298;52.560;13.508;2023-02-15T16:03:22;17.98;;;16.95;;
13733;SDS011;43298;52.560;13.508;2023-02-15T16:05:51;14.40;;;13.30;;
13733;SDS011;43298;52.560;13.508;2023-02-15T16:08:33;13.38;;;12.50;;
13733;SDS011;43298;52.560;13.508;2023-02-15T16:11:14;15.50;;;14.20;;
13733;SDS011;43298;52.560;13.508;2023-02-15T16:13:47;16.45;;;15.02;;
13733;SDS011;43298;52.560;13.508;2023-02-15T16:16:13;19.75;;;18.55;;
13733;SDS011;43298;52.560;13.508;2023-02-15T16:18:53;18.70;;;17.10;;
13733;SDS011;43298;52.560;13.508;2023-02-15T16:21:28;17.23;;;16.10;;
13733;SDS011;43298;52.560;13.508;2023-02-15T16:24:07;14.52;;;13.70;;
13733;SDS011;43298;52.560;13.508;2023-02-15T16:29:18;14.60;;;13.50;;
13733;SDS011;43298;52.560;13.508;2023-02-15T16:32:04;15.15;;;14.15;;
13733;SDS011;43298;52.560;13.508;2023-02-15T16:35:14;14.63;;;13.30;;
13733;SDS011;43298;52.560;13.508;2023-02-15T16:37:40;16.67;;;14.95;;
13733;SDS011;43298;52.560;13.508;2023-02-15T16:40:06;15.00;;;14.20;;
13733;SDS011;43298;52.560;13.508;2023-02-15T16:43:02;16.55;;;15.23;;
13733;SDS011;43298;52.560;13.508;2023-02-15T16:45:32;15.23;;;13.63;;
13733;SDS011;43298;52.560;13.508;2023-02-15T16:48:02;17.20;;;15.05;;
13733;SDS011;43298;52.560;13.508;2023-02-15T16:50:37;14.35;;;13.45;;
13733;SDS011;43298;52.560;13.508;2023-02-15T16:53:05;14.15;;;13.30;;
13733;SDS011;43298;52.560;13.508;2023-02-15T16:55:39;14.32;;;13.07;;
13733;SDS011;43298;52.560;13.508;2023-02-15T16:58:11;15.48;;;14.07;;
13733;SDS011;43298;52.560;13.508;2023-02-15T17:00:42;14.38;;;13.52;;
13733;SDS011;43298;52.560;13.508;2023-02-15T17:03:29;15.75;;;14.27;;
13733;SDS011;43298;52.560;13.508;2023-02-15T17:05:55;15.02;;;14.13;;
13733;SDS011;43298;52.560;13.508;2023-02-15T17:13:36;14.95;;;13.95;;
13733;SDS011;43298;52.560;13.508;2023-02-15T17:18:52;14.43;;;13.52;;
13733;SDS011;43298;52.560;13.508;2023-02-15T17:21:24;16.10;;;15.18;;
13733;SDS011;43298;52.560;13.508;2023-02-15T17:23:57;14.07;;;13.13;;
13733;SDS011;43298;52.560;13.508;2023-02-15T17:26:30;13.90;;;13.02;;
13733;SDS011;43298;52.560;13.508;2023-02-15T17:29:12;15.05;;;14.10;;
13733;SDS011;43298;52.560;13.508;2023-02-15T17:31:50;14.55;;;13.63;;
13733;SDS011;43298;52.560;13.508;2023-02-15T17:37:32;16.35;;;15.35;;
13733;SDS011;43298;52.560;13.508;2023-02-15T17:42:49;15.73;;;14.63;;
13733;SDS011;43298;52.560;13.508;2023-02-15T17:45:15;15.00;;;14.02;;
13733;SDS011;43298;52.560;13.508;2023-02-15T17:47:42;13.75;;;13.05;;
13733;SDS011;43298;52.560;13.508;2023-02-15T17:50:10;14.75;;;13.73;;
13733;SDS011;43298;52.560;13.508;2023-02-15T17:52:47;15.57;;;14.65;;
13733;SDS011;43298;52.560;13.508;2023-02-15T17:55:15;14.57;;;13.65;;
13733;SDS011;43298;52.560;13.508;2023-02-15T17:57:59;13.73;;;13.13;;
13733;SDS011;43298;52.560;13.508;2023-02-15T18:00:29;15.43;;;14.60;;
13733;SDS011;43298;52.560;13.508;2023-02-15T18:03:14;15.77;;;14.98;;
13733;SDS011;43298;52.560;13.508;2023-02-15T18:05:59;14.27;;;13.52;;
13733;SDS011;43298;52.560;13.508;2023-02-15T18:08:44;17.15;;;16.02;;
13733;SDS011;43298;52.560;13.508;2023-02-15T18:11:28;17.52;;;16.35;;
13733;SDS011;43298;52.560;13.508;2023-02-15T18:14:04;16.50;;;15.60;;
13733;SDS011;43298;52.560;13.508;2023-02-15T18:16:35;14.85;;;14.10;;
13733;SDS011;43298;52.560;13.508;2023-02-15T18:19:23;15.60;;;14.80;;
13733;SDS011;43298;52.560;13.508;2023-02-15T18:21:50;15.77;;;14.90;;
13733;SDS011;43298;52.560;13.508;2023-02-15T18:24:18;15.95;;;15.07;;